Time;durP1;ratioP1;P1;durP2;ratioP2;P2;SDS_P1;SDS_P2;PMS_P1;PMS_P2;Temp;Humidity;BMP_temperature;BMP_pressure;BME280_temperature;BME280_humidity;BME280_pressure;Samples;Min_cycle;Max_cycle;Signal;HPM_P1;HPM_P2
2022/12/26 15:31:28;;;;;;;14.40;3.58;;;;;;;;;;5037046;27;86371;-69
2022/12/26 15:33:58;;;;;;;17.70;3.25;;;;;;;;;;5034961;27;86724;-70
2022/12/26 15:36:27;;;;;;;16.65;4.82;;;;;;;;;;5034515;27;88477;-69
2022/12/26 15:39:15;;;;;;;17.35;4.63;;;;;;;;;;5033105;27;87749;-70
2022/12/26 15:41:45;;;;;;;14.18;4.35;;;;;;;;;;5015335;28;87869;-70
2022/12/26 15:44:30;;;;;;;18.15;4.97;;;;;;;;;;5031236;27;87085;-70
2022/12/26 15:47:06;;;;;;;18.73;6.05;;;;;;;;;;5033655;27;87546;-70
2022/12/26 15:50:02;;;;;;;19.17;5.32;;;;;;;;;;5033095;27;87923;-70
2022/12/26 15:52:49;;;;;;;21.23;5.25;;;;;;;;;;5023749;27;87293;-70
2022/12/26 15:55:29;;;;;;;13.93;5.00;;;;;;;;;;5033783;27;88057;-70
2022/12/26 15:57:57;;;;;;;16.70;4.45;;;;;;;;;;5034054;27;87659;-70
2022/12/26 16:00:38;;;;;;;14.93;4.15;;;;;;;;;;5031649;27;88806;-70
2022/12/26 16:03:04;;;;;;;;;;;;;;;;;;5020815;27;87917;-70
2022/12/26 16:05:43;;;;;;;16.30;5.57;;;;;;;;;;5016036;27;117324;-70
2022/12/26 16:08:35;;;;;;;23.40;6.78;;;;;;;;;;5014633;28;88629;-70
2022/12/26 16:11:18;;;;;;;20.80;8.18;;;;;;;;;;5015449;27;88757;-70
2022/12/26 16:13:52;;;;;;;18.88;6.63;;;;;;;;;;5014416;28;87128;-70
2022/12/26 16:16:26;;;;;;;22.48;9.65;;;;;;;;;;5029597;27;87294;-70
2022/12/26 16:18:53;;;;;;;22.10;9.43;;;;;;;;;;5031948;27;88840;-70
2022/12/26 16:24:07;;;;;;;18.25;6.40;;;;;;;;;;5033202;27;86856;-69
2022/12/26 16:26:38;;;;;;;16.40;6.57;;;;;;;;;;5026849;27;87406;-70
2022/12/26 16:29:04;;;;;;;17.20;5.70;;;;;;;;;;5022732;28;87500;-70
2022/12/26 16:31:31;;;;;;;15.70;5.05;;;;;;;;;;5033471;28;88613;-70
2022/12/26 16:33:58;;;;;;;22.33;12.32;;;;;;;;;;5031929;27;88557;-70
2022/12/26 16:36:25;;;;;;;17.33;6.40;;;;;;;;;;5023449;28;89168;-70
2022/12/26 16:38:52;;;;;;;22.42;8.18;;;;;;;;;;5034480;28;93466;-70
2022/12/26 16:41:26;;;;;;;25.83;9.93;;;;;;;;;;5027275;28;86713;-70
2022/12/26 16:43:54;;;;;;;17.52;7.47;;;;;;;;;;5019560;28;87829;-70
2022/12/26 16:46:23;;;;;;;13.55;6.32;;;;;;;;;;5011636;28;87261;-71
2022/12/26 16:48:57;;;;;;;25.67;7.50;;;;;;;;;;5000152;28;87523;-70
2022/12/26 16:51:35;;;;;;;18.00;6.40;;;;;;;;;;5019879;28;88246;-70
2022/12/26 16:54:25;;;;;;;23.33;7.25;;;;;;;;;;5019748;28;86859;-70
2022/12/26 16:57:04;;;;;;;15.10;5.47;;;;;;;;;;5007781;28;87461;-69
2022/12/26 16:59:39;;;;;;;37.28;16.17;;;;;;;;;;5019387;28;86861;-70
2022/12/26 17:02:12;;;;;;;31.52;12.02;;;;;;;;;;5018191;28;89564;-69
2022/12/26 17:04:38;;;;;;;19.95;8.02;;;;;;;;;;5028145;28;90115;-69
2022/12/26 17:07:05;;;;;;;17.88;6.70;;;;;;;;;;5011406;28;87237;-69
2022/12/26 17:09:39;;;;;;;18.00;5.70;;;;;;;;;;5017204;28;87516;-69
2022/12/26 17:12:07;;;;;;;17.50;6.45;;;;;;;;;;5014538;28;88060;-69
2022/12/26 17:14:35;;;;;;;20.13;5.10;;;;;;;;;;5002229;28;87572;-69
2022/12/26 17:17:03;;;;;;;13.80;4.88;;;;;;;;;;5018351;28;87977;-69
2022/12/26 17:19:31;;;;;;;14.07;5.35;;;;;;;;;;5020187;28;88314;-69
2022/12/26 17:22:13;;;;;;;15.60;5.28;;;;;;;;;;5010920;28;88417;-69
2022/12/26 17:24:39;;;;;;;19.20;4.60;;;;;;;;;;5013969;28;87518;-69
2022/12/26 17:27:25;;;;;;;15.65;5.30;;;;;;;;;;5005954;28;88754;-69
2022/12/26 17:29:58;;;;;;;25.08;8.63;;;;;;;;;;5017501;28;87511;-69
2022/12/26 17:32:24;;;;;;;36.15;15.43;;;;;;;;;;5008640;28;89599;-69
2022/12/26 17:34:51;;;;;;;24.42;10.45;;;;;;;;;;4998340;28;89899;-69
2022/12/26 17:37:20;;;;;;;26.42;9.00;;;;;;;;;;4999251;28;89737;-68
2022/12/26 17:40:05;;;;;;;20.00;5.78;;;;;;;;;;5010741;28;90040;-69
2022/12/26 17:42:48;;;;;;;16.70;4.85;;;;;;;;;;5010275;28;87169;-68
2022/12/26 17:45:16;;;;;;;23.73;9.80;;;;;;;;;;5013457;28;87863;-69
2022/12/26 17:47:43;;;;;;;11.25;5.07;;;;;;;;;;5002608;28;87105;-69
2022/12/26 17:50:09;;;;;;;14.85;5.00;;;;;;;;;;5001093;28;87494;-69
2022/12/26 17:52:36;;;;;;;27.05;6.28;;;;;;;;;;5017618;28;87904;-69
2022/12/26 17:55:04;;;;;;;20.95;7.50;;;;;;;;;;5015845;28;88520;-69
2022/12/26 17:57:30;;;;;;;19.80;7.30;;;;;;;;;;5018444;28;87771;-69
2022/12/26 17:59:57;;;;;;;16.77;4.80;;;;;;;;;;5018977;28;87869;-69
2022/12/26 18:02:23;;;;;;;16.98;4.28;;;;;;;;;;5019528;28;87346;-68
2022/12/26 18:04:50;;;;;;;17.70;4.75;;;;;;;;;;5016834;28;87736;-69
2022/12/26 18:07:20;;;;;;;13.55;4.85;;;;;;;;;;5021146;28;87821;-69
2022/12/26 18:09:56;;;;;;;14.10;4.22;;;;;;;;;;4999113;28;87594;-70
2022/12/26 18:12:22;;;;;;;13.60;4.90;;;;;;;;;;5000247;28;87913;-69
2022/12/26 18:14:48;;;;;;;18.42;4.63;;;;;;;;;;5005494;28;88070;-68
2022/12/26 18:17:18;;;;;;;21.63;5.35;;;;;;;;;;5007771;28;88201;-69
2022/12/26 18:19:45;;;;;;;19.27;4.70;;;;;;;;;;5013468;28;87877;-68
2022/12/26 18:22:12;;;;;;;24.33;5.30;;;;;;;;;;5008576;28;86990;-69
2022/12/26 18:24:39;;;;;;;19.77;5.00;;;;;;;;;;4998519;28;87281;-68
2022/12/26 18:27:05;;;;;;;15.73;3.72;;;;;;;;;;5014874;28;87894;-68
2022/12/26 18:29:31;;;;;;;22.13;3.67;;;;;;;;;;5020207;28;87463;-69
2022/12/26 18:31:58;;;;;;;20.90;5.32;;;;;;;;;;5009149;28;87847;-70
2022/12/26 18:34:27;;;;;;;13.63;3.45;;;;;;;;;;5016638;28;87758;-69
2022/12/26 18:36:53;;;;;;;12.40;3.47;;;;;;;;;;5017571;28;86906;-69
2022/12/26 18:39:20;;;;;;;19.15;3.50;;;;;;;;;;5018681;28;87003;-69
2022/12/26 18:41:46;;;;;;;17.27;5.85;;;;;;;;;;5015960;28;87363;-68
2022/12/26 18:44:14;;;;;;;19.17;6.30;;;;;;;;;;5013544;28;88365;-69
2022/12/26 18:46:40;;;;;;;21.27;4.20;;;;;;;;;;5011646;28;87957;-68
2022/12/26 18:49:08;;;;;;;11.48;3.30;;;;;;;;;;5017013;28;87631;-70
2022/12/26 18:51:36;;;;;;;14.82;3.30;;;;;;;;;;5006759;28;87671;-69
2022/12/26 18:54:03;;;;;;;14.88;4.03;;;;;;;;;;5018717;28;87836;-68
2022/12/26 18:56:29;;;;;;;17.20;3.75;;;;;;;;;;5018847;28;88814;-69
2022/12/26 18:58:55;;;;;;;24.27;4.50;;;;;;;;;;5018538;28;87852;-70
2022/12/26 19:01:23;;;;;;;13.55;3.90;;;;;;;;;;5013004;28;88904;-69
2022/12/26 19:03:50;;;;;;;24.75;5.45;;;;;;;;;;5016187;28;87873;-69
2022/12/26 19:06:26;;;;;;;16.83;5.07;;;;;;;;;;5017000;28;90123;-69
2022/12/26 19:08:53;;;;;;;12.30;3.53;;;;;;;;;;5017207;28;87398;-69
2022/12/26 19:11:19;;;;;;;17.67;3.67;;;;;;;;;;5012924;28;87767;-69
2022/12/26 19:13:46;;;;;;;16.23;3.65;;;;;;;;;;5018865;28;88274;-69
2022/12/26 19:16:13;;;;;;;23.13;4.15;;;;;;;;;;5018712;28;87551;-69
2022/12/26 19:18:39;;;;;;;13.82;3.75;;;;;;;;;;5018220;28;89350;-69
2022/12/26 19:21:10;;;;;;;20.33;4.18;;;;;;;;;;5015859;28;87223;-69
2022/12/26 19:23:36;;;;;;;25.25;4.20;;;;;;;;;;5016343;28;87609;-69
2022/12/26 19:26:07;;;;;;;18.60;3.92;;;;;;;;;;5017386;28;87880;-69
2022/12/26 19:28:33;;;;;;;14.52;3.83;;;;;;;;;;5017597;28;87291;-69
2022/12/26 19:31:05;;;;;;;17.30;3.80;;;;;;;;;;5016098;28;87309;-69
2022/12/26 19:33:31;;;;;;;12.90;3.55;;;;;;;;;;4996634;28;89291;-69
2022/12/26 19:35:57;;;;;;;15.77;4.20;;;;;;;;;;5013306;28;88029;-69
2022/12/26 19:38:23;;;;;;;15.82;3.20;;;;;;;;;;5017262;28;87468;-69
2022/12/26 19:40:50;;;;;;;15.77;5.70;;;;;;;;;;5018175;28;88303;-70
2022/12/26 19:43:16;;;;;;;7.07;2.92;;;;;;;;;;5011832;28;89454;-69
2022/12/26 19:45:44;;;;;;;15.18;3.97;;;;;;;;;;5017700;28;89275;-69
2022/12/26 19:48:10;;;;;;;16.75;6.40;;;;;;;;;;5015468;28;88035;-70
2022/12/26 19:50:37;;;;;;;34.80;9.23;;;;;;;;;;5000884;28;89312;-70
2022/12/26 19:53:03;;;;;;;13.57;4.88;;;;;;;;;;5013796;28;88832;-69
2022/12/26 19:55:29;;;;;;;18.42;4.75;;;;;;;;;;5019393;28;89557;-69
2022/12/26 19:57:56;;;;;;;18.90;5.30;;;;;;;;;;5015901;28;87993;-69
2022/12/26 20:00:22;;;;;;;20.77;4.78;;;;;;;;;;5014939;28;88832;-70
2022/12/26 20:02:48;;;;;;;14.23;5.55;;;;;;;;;;5011962;28;91723;-70
2022/12/26 20:05:15;;;;;;;15.48;5.38;;;;;;;;;;5011828;28;88116;-70
2022/12/26 20:07:41;;;;;;;19.75;5.93;;;;;;;;;;5016812;28;89006;-69
2022/12/26 20:10:07;;;;;;;15.18;4.97;;;;;;;;;;5017085;28;88273;-69
2022/12/26 20:12:34;;;;;;;13.60;4.60;;;;;;;;;;5011465;28;88764;-69
2022/12/26 20:15:00;;;;;;;19.15;4.15;;;;;;;;;;5016328;28;90595;-69
2022/12/26 20:17:27;;;;;;;14.38;3.78;;;;;;;;;;5021510;28;88661;-69
2022/12/26 20:19:53;;;;;;;11.68;3.17;;;;;;;;;;5020047;28;89733;-69
2022/12/26 20:22:19;;;;;;;22.60;5.45;;;;;;;;;;5019320;28;91235;-69
2022/12/26 20:24:46;;;;;;;20.45;5.35;;;;;;;;;;5017058;28;87994;-70
2022/12/26 20:27:12;;;;;;;12.38;4.10;;;;;;;;;;5018845;28;91136;-69
2022/12/26 20:29:39;;;;;;;12.60;3.53;;;;;;;;;;5018962;28;88972;-69
2022/12/26 20:32:05;;;;;;;10.10;3.53;;;;;;;;;;5018572;28;88012;-69
2022/12/26 20:34:31;;;;;;;18.73;4.38;;;;;;;;;;5017381;28;91639;-69
2022/12/26 20:36:57;;;;;;;12.45;3.25;;;;;;;;;;5019158;28;89090;-69
2022/12/26 20:39:24;;;;;;;11.40;3.50;;;;;;;;;;5022791;28;88356;-69
2022/12/26 20:41:50;;;;;;;10.50;2.70;;;;;;;;;;5019294;28;90826;-69
2022/12/26 20:44:17;;;;;;;16.75;4.50;;;;;;;;;;5017341;28;88918;-69
2022/12/26 20:46:44;;;;;;;13.98;3.72;;;;;;;;;;5017627;28;89437;-69
2022/12/26 20:49:10;;;;;;;13.35;3.80;;;;;;;;;;5018601;28;88939;-69
2022/12/26 20:51:38;;;;;;;14.15;3.95;;;;;;;;;;4999313;28;89737;-69
2022/12/26 20:54:05;;;;;;;13.52;3.45;;;;;;;;;;5015410;28;88357;-69
2022/12/26 20:56:31;;;;;;;13.25;3.40;;;;;;;;;;5017296;28;87975;-69
2022/12/26 20:58:58;;;;;;;13.57;3.40;;;;;;;;;;5013012;28;88438;-69
2022/12/26 21:01:25;;;;;;;11.55;3.45;;;;;;;;;;5021603;28;88140;-69
2022/12/26 21:03:52;;;;;;;14.63;2.90;;;;;;;;;;5018372;28;88056;-69
2022/12/26 21:06:22;;;;;;;13.05;2.90;;;;;;;;;;5018921;28;88724;-69
2022/12/26 21:08:49;;;;;;;15.85;4.65;;;;;;;;;;5019268;28;89367;-69
2022/12/26 21:11:17;;;;;;;9.52;3.35;;;;;;;;;;5006964;28;88131;-69
2022/12/26 21:13:44;;;;;;;12.65;2.60;;;;;;;;;;4999667;28;90104;-69
2022/12/26 21:16:22;;;;;;;16.63;2.95;;;;;;;;;;5008854;28;88748;-69
2022/12/26 21:18:48;;;;;;;16.23;2.75;;;;;;;;;;5014121;28;88504;-69
2022/12/26 21:21:16;;;;;;;10.02;2.85;;;;;;;;;;5018630;28;92148;-69
2022/12/26 21:23:43;;;;;;;12.38;2.78;;;;;;;;;;5020543;28;88644;-69
2022/12/26 21:26:09;;;;;;;14.77;2.60;;;;;;;;;;5017596;28;88204;-69
2022/12/26 21:28:36;;;;;;;12.15;2.60;;;;;;;;;;5017517;28;89087;-69
2022/12/26 21:31:02;;;;;;;9.85;2.13;;;;;;;;;;5017716;28;88777;-69
2022/12/26 21:33:29;;;;;;;8.55;2.67;;;;;;;;;;5012923;28;89985;-69
2022/12/26 21:35:55;;;;;;;16.60;3.45;;;;;;;;;;5010129;28;89572;-69
2022/12/26 21:38:22;;;;;;;8.30;2.72;;;;;;;;;;5009063;28;88099;-68
2022/12/26 21:40:49;;;;;;;13.50;2.63;;;;;;;;;;5015622;28;90766;-68
2022/12/26 21:43:15;;;;;;;14.35;2.90;;;;;;;;;;5018354;28;92474;-69
2022/12/26 21:45:41;;;;;;;12.23;2.38;;;;;;;;;;5020484;28;88108;-69
2022/12/26 21:48:08;;;;;;;13.82;3.53;;;;;;;;;;5017281;28;88061;-69
2022/12/26 21:50:34;;;;;;;11.52;2.90;;;;;;;;;;5011311;28;89064;-68
2022/12/26 21:53:01;;;;;;;7.70;3.08;;;;;;;;;;5017024;28;88096;-68
2022/12/26 21:55:29;;;;;;;12.63;2.88;;;;;;;;;;5018071;28;90155;-69
2022/12/26 21:57:58;;;;;;;12.70;3.20;;;;;;;;;;5011235;28;88048;-69
2022/12/26 22:00:24;;;;;;;13.68;3.20;;;;;;;;;;4998619;28;89043;-69
2022/12/26 22:05:37;;;;;;;13.13;3.40;;;;;;;;;;5016352;28;88094;-69
2022/12/26 22:08:07;;;;;;;9.43;3.88;;;;;;;;;;4999202;28;89594;-69
2022/12/26 22:13:20;;;;;;;18.67;4.25;;;;;;;;;;5011929;28;89923;-69
2022/12/26 22:16:03;;;;;;;12.52;3.45;;;;;;;;;;5005206;28;89421;-69
2022/12/26 22:18:31;;;;;;;10.43;3.38;;;;;;;;;;5016902;28;88012;-69
2022/12/26 22:21:10;;;;;;;9.40;3.45;;;;;;;;;;5009825;28;89434;-68
2022/12/26 22:23:37;;;;;;;11.05;3.30;;;;;;;;;;5013863;28;89288;-69
2022/12/26 22:26:04;;;;;;;17.40;3.88;;;;;;;;;;5006399;28;89597;-69
2022/12/26 22:28:31;;;;;;;23.73;3.67;;;;;;;;;;5015293;28;88393;-69
2022/12/26 22:30:58;;;;;;;10.35;3.40;;;;;;;;;;5007278;28;89584;-69
2022/12/26 22:33:24;;;;;;;10.75;3.47;;;;;;;;;;4997898;28;88899;-69
2022/12/26 22:35:50;;;;;;;14.60;3.75;;;;;;;;;;5003862;28;89365;-69
2022/12/26 22:38:17;;;;;;;24.95;4.20;;;;;;;;;;5015596;28;88191;-69
2022/12/26 22:40:53;;;;;;;16.67;4.22;;;;;;;;;;5014480;28;88121;-68
2022/12/26 22:43:20;;;;;;;19.90;3.67;;;;;;;;;;4997766;28;89064;-68
2022/12/26 22:45:46;;;;;;;15.60;4.20;;;;;;;;;;4997408;28;89001;-68
2022/12/26 22:48:13;;;;;;;11.05;3.67;;;;;;;;;;4996290;28;89416;-68
2022/12/26 22:50:43;;;;;;;17.17;5.20;;;;;;;;;;5000595;28;89552;-68
